sensor_id;sensor_type;location;lat;lon;timestamp;temperature;humidity
29917;DHT22;16786;49.466;11.068;2024-03-08T00:00:04;1.30;99.90
29917;DHT22;16786;49.466;11.068;2024-03-08T00:02:40;1.30;99.90
29917;DHT22;16786;49.466;11.068;2024-03-08T00:05:08;1.30;99.90
29917;DHT22;16786;49.466;11.068;2024-03-08T00:07:36;1.30;99.90
29917;DHT22;16786;49.466;11.068;2024-03-08T00:10:08;1.20;99.90
29917;DHT22;16786;49.466;11.068;2024-03-08T00:12:41;1.20;99.90
29917;DHT22;16786;49.466;11.068;2024-03-08T00:15:12;1.10;99.90
29917;DHT22;16786;49.466;11.068;2024-03-08T00:17:43;1.10;99.90
29917;DHT22;16786;49.466;11.068;2024-03-08T00:20:10;1.10;99.90
29917;DHT22;16786;49.466;11.068;2024-03-08T00:22:38;1.10;99.90
29917;DHT22;16786;49.466;11.068;2024-03-08T00:25:06;1.10;99.90
29917;DHT22;16786;49.466;11.068;2024-03-08T00:27:37;1.10;99.90
29917;DHT22;16786;49.466;11.068;2024-03-08T00:30:05;1.10;99.90
29917;DHT22;16786;49.466;11.068;2024-03-08T00:32:33;1.10;99.90
29917;DHT22;16786;49.466;11.068;2024-03-08T00:35:00;1.20;99.90
29917;DHT22;16786;49.466;11.068;2024-03-08T00:37:27;1.20;99.90
29917;DHT22;16786;49.466;11.068;2024-03-08T00:39:54;1.20;99.90
29917;DHT22;16786;49.466;11.068;2024-03-08T00:42:21;1.20;99.90
29917;DHT22;16786;49.466;11.068;2024-03-08T00:44:48;1.20;99.90
29917;DHT22;16786;49.466;11.068;2024-03-08T00:47:18;1.20;99.90
29917;DHT22;16786;49.466;11.068;2024-03-08T00:49:45;1.30;99.90
29917;DHT22;16786;49.466;11.068;2024-03-08T00:52:13;1.30;99.90
29917;DHT22;16786;49.466;11.068;2024-03-08T00:54:41;1.20;99.90
29917;DHT22;16786;49.466;11.068;2024-03-08T00:57:10;1.20;99.90
29917;DHT22;16786;49.466;11.068;2024-03-08T00:59:40;1.20;99.90
29917;DHT22;16786;49.466;11.068;2024-03-08T01:02:07;1.20;99.90
29917;DHT22;16786;49.466;11.068;2024-03-08T01:04:35;1.20;99.90
29917;DHT22;16786;49.466;11.068;2024-03-08T01:07:02;1.20;99.90
29917;DHT22;16786;49.466;11.068;2024-03-08T01:09:29;1.10;99.90
29917;DHT22;16786;49.466;11.068;2024-03-08T01:11:56;1.10;99.90
29917;DHT22;16786;49.466;11.068;2024-03-08T01:14:24;1.10;99.90
29917;DHT22;16786;49.466;11.068;2024-03-08T01:16:56;1.10;99.90
29917;DHT22;16786;49.466;11.068;2024-03-08T01:19:23;1.10;99.90
29917;DHT22;16786;49.466;11.068;2024-03-08T01:21:51;1.00;99.90
29917;DHT22;16786;49.466;11.068;2024-03-08T01:24:19;1.00;99.90
29917;DHT22;16786;49.466;11.068;2024-03-08T01:26:46;1.00;99.90
29917;DHT22;16786;49.466;11.068;2024-03-08T01:29:14;0.90;99.90
29917;DHT22;16786;49.466;11.068;2024-03-08T01:31:41;0.90;99.90
29917;DHT22;16786;49.466;11.068;2024-03-08T01:34:08;0.90;99.90
29917;DHT22;16786;49.466;11.068;2024-03-08T01:36:35;1.00;99.90
29917;DHT22;16786;49.466;11.068;2024-03-08T01:39:03;0.90;99.90
29917;DHT22;16786;49.466;11.068;2024-03-08T01:41:35;0.90;99.90
29917;DHT22;16786;49.466;11.068;2024-03-08T01:44:02;0.90;99.90
29917;DHT22;16786;49.466;11.068;2024-03-08T01:46:30;0.90;99.90
29917;DHT22;16786;49.466;11.068;2024-03-08T01:48:58;0.90;99.90
29917;DHT22;16786;49.466;11.068;2024-03-08T01:51:25;0.90;99.90
29917;DHT22;16786;49.466;11.068;2024-03-08T01:53:52;0.80;99.90
29917;DHT22;16786;49.466;11.068;2024-03-08T01:56:19;0.80;99.90
29917;DHT22;16786;49.466;11.068;2024-03-08T01:58:46;0.80;99.90
29917;DHT22;16786;49.466;11.068;2024-03-08T02:01:16;0.80;99.90
29917;DHT22;16786;49.466;11.068;2024-03-08T02:03:44;0.70;99.90
29917;DHT22;16786;49.466;11.068;2024-03-08T02:06:12;0.70;99.90
29917;DHT22;16786;49.466;11.068;2024-03-08T02:08:45;0.60;99.90
29917;DHT22;16786;49.466;11.068;2024-03-08T02:11:13;0.60;99.90
29917;DHT22;16786;49.466;11.068;2024-03-08T02:13:40;0.60;99.90
29917;DHT22;16786;49.466;11.068;2024-03-08T02:16:07;0.60;99.90
29917;DHT22;16786;49.466;11.068;2024-03-08T02:18:36;0.50;99.90
29917;DHT22;16786;49.466;11.068;2024-03-08T02:21:05;0.60;99.90
29917;DHT22;16786;49.466;11.068;2024-03-08T02:23:33;0.60;99.90
29917;DHT22;16786;49.466;11.068;2024-03-08T02:26:01;0.60;99.90
29917;DHT22;16786;49.466;11.068;2024-03-08T02:28:28;0.60;99.90
29917;DHT22;16786;49.466;11.068;2024-03-08T02:30:57;0.60;99.90
29917;DHT22;16786;49.466;11.068;2024-03-08T02:33:26;0.60;99.90
29917;DHT22;16786;49.466;11.068;2024-03-08T02:35:54;0.60;99.90
29917;DHT22;16786;49.466;11.068;2024-03-08T02:38:22;0.60;99.90
29917;DHT22;16786;49.466;11.068;2024-03-08T02:40:52;0.60;99.90
29917;DHT22;16786;49.466;11.068;2024-03-08T02:43:21;0.60;99.90
29917;DHT22;16786;49.466;11.068;2024-03-08T02:45:52;0.60;99.90
29917;DHT22;16786;49.466;11.068;2024-03-08T02:48:22;0.60;99.90
29917;DHT22;16786;49.466;11.068;2024-03-08T02:50:49;0.60;99.90
29917;DHT22;16786;49.466;11.068;2024-03-08T02:53:18;0.60;99.90
29917;DHT22;16786;49.466;11.068;2024-03-08T02:55:49;0.60;99.90
29917;DHT22;16786;49.466;11.068;2024-03-08T02:58:16;0.60;99.90
29917;DHT22;16786;49.466;11.068;2024-03-08T03:00:43;0.60;99.90
29917;DHT22;16786;49.466;11.068;2024-03-08T03:03:11;0.60;99.90
29917;DHT22;16786;49.466;11.068;2024-03-08T03:05:38;0.60;99.90
29917;DHT22;16786;49.466;11.068;2024-03-08T03:08:11;0.50;99.90
29917;DHT22;16786;49.466;11.068;2024-03-08T03:10:40;0.50;99.90
29917;DHT22;16786;49.466;11.068;2024-03-08T03:13:07;0.50;99.90
29917;DHT22;16786;49.466;11.068;2024-03-08T03:15:35;0.50;99.90
29917;DHT22;16786;49.466;11.068;2024-03-08T03:18:03;0.50;99.90
29917;DHT22;16786;49.466;11.068;2024-03-08T03:20:30;0.50;99.90
29917;DHT22;16786;49.466;11.068;2024-03-08T03:23:07;0.40;99.90
29917;DHT22;16786;49.466;11.068;2024-03-08T03:25:35;0.50;99.90
29917;DHT22;16786;49.466;11.068;2024-03-08T03:28:03;0.50;99.90
29917;DHT22;16786;49.466;11.068;2024-03-08T03:30:31;0.50;99.90
29917;DHT22;16786;49.466;11.068;2024-03-08T03:33:01;0.50;99.90
29917;DHT22;16786;49.466;11.068;2024-03-08T03:35:29;0.50;99.90
29917;DHT22;16786;49.466;11.068;2024-03-08T03:37:56;0.50;99.90
29917;DHT22;16786;49.466;11.068;2024-03-08T03:40:34;0.40;99.90
29917;DHT22;16786;49.466;11.068;2024-03-08T03:43:02;0.40;99.90
29917;DHT22;16786;49.466;11.068;2024-03-08T03:45:32;0.40;99.90
29917;DHT22;16786;49.466;11.068;2024-03-08T03:48:05;0.30;99.90
29917;DHT22;16786;49.466;11.068;2024-03-08T03:50:37;0.30;99.90
29917;DHT22;16786;49.466;11.068;2024-03-08T03:53:06;0.30;99.90
29917;DHT22;16786;49.466;11.068;2024-03-08T03:55:37;0.30;99.90
29917;DHT22;16786;49.466;11.068;2024-03-08T03:58:07;0.30;99.90
29917;DHT22;16786;49.466;11.068;2024-03-08T04:00:34;0.30;99.90
29917;DHT22;16786;49.466;11.068;2024-03-08T04:03:01;0.40;99.90
29917;DHT22;16786;49.466;11.068;2024-03-08T04:05:28;0.30;99.90
29917;DHT22;16786;49.466;11.068;2024-03-08T04:07:55;0.40;99.90
29917;DHT22;16786;49.466;11.068;2024-03-08T04:10:23;0.40;99.90
29917;DHT22;16786;49.466;11.068;2024-03-08T04:12:50;0.30;99.90
29917;DHT22;16786;49.466;11.068;2024-03-08T04:15:17;0.30;99.90
29917;DHT22;16786;49.466;11.068;2024-03-08T04:17:44;0.40;99.90
29917;DHT22;16786;49.466;11.068;2024-03-08T04:20:13;0.40;99.90
29917;DHT22;16786;49.466;11.068;2024-03-08T04:22:42;0.30;99.90
29917;DHT22;16786;49.466;11.068;2024-03-08T04:25:10;0.40;99.90
29917;DHT22;16786;49.466;11.068;2024-03-08T04:27:38;0.40;99.90
29917;DHT22;16786;49.466;11.068;2024-03-08T04:30:05;0.30;99.90
29917;DHT22;16786;49.466;11.068;2024-03-08T04:32:34;0.30;99.90
29917;DHT22;16786;49.466;11.068;2024-03-08T04:35:02;0.20;99.90
29917;DHT22;16786;49.466;11.068;2024-03-08T04:37:30;0.10;99.90
29917;DHT22;16786;49.466;11.068;2024-03-08T04:39:57;0.10;99.90
29917;DHT22;16786;49.466;11.068;2024-03-08T04:42:24;0.10;99.90
29917;DHT22;16786;49.466;11.068;2024-03-08T04:44:52;0.10;99.90
29917;DHT22;16786;49.466;11.068;2024-03-08T04:47:20;0.10;99.90
29917;DHT22;16786;49.466;11.068;2024-03-08T04:49:47;0.10;99.90
29917;DHT22;16786;49.466;11.068;2024-03-08T04:52:14;0.00;99.90
29917;DHT22;16786;49.466;11.068;2024-03-08T04:54:41;0.00;99.90
29917;DHT22;16786;49.466;11.068;2024-03-08T04:57:08;0.00;99.90
29917;DHT22;16786;49.466;11.068;2024-03-08T04:59:35;0.10;99.90
29917;DHT22;16786;49.466;11.068;2024-03-08T05:02:03;0.00;99.90
29917;DHT22;16786;49.466;11.068;2024-03-08T05:04:30;0.10;99.90
29917;DHT22;16786;49.466;11.068;2024-03-08T05:06:57;0.10;99.90
29917;DHT22;16786;49.466;11.068;2024-03-08T05:09:24;0.10;99.90
29917;DHT22;16786;49.466;11.068;2024-03-08T05:11:51;0.10;99.90
29917;DHT22;16786;49.466;11.068;2024-03-08T05:14:18;0.20;99.90
29917;DHT22;16786;49.466;11.068;2024-03-08T05:16:47;0.10;99.90
29917;DHT22;16786;49.466;11.068;2024-03-08T05:19:18;0.20;99.90
29917;DHT22;16786;49.466;11.068;2024-03-08T05:21:45;0.10;99.90
29917;DHT22;16786;49.466;11.068;2024-03-08T05:24:13;0.20;99.90
29917;DHT22;16786;49.466;11.068;2024-03-08T05:26:41;0.20;99.90
29917;DHT22;16786;49.466;11.068;2024-03-08T05:29:08;0.10;99.90
29917;DHT22;16786;49.466;11.068;2024-03-08T05:31:50;0.10;99.90
29917;DHT22;16786;49.466;11.068;2024-03-08T05:34:17;0.10;99.90
29917;DHT22;16786;49.466;11.068;2024-03-08T05:36:46;0.10;99.90
29917;DHT22;16786;49.466;11.068;2024-03-08T05:39:13;0.10;99.90
29917;DHT22;16786;49.466;11.068;2024-03-08T05:41:41;0.10;99.90
29917;DHT22;16786;49.466;11.068;2024-03-08T05:44:09;0.20;99.90
29917;DHT22;16786;49.466;11.068;2024-03-08T05:46:37;0.20;99.90
29917;DHT22;16786;49.466;11.068;2024-03-08T05:49:04;0.20;99.90
29917;DHT22;16786;49.466;11.068;2024-03-08T05:51:37;0.20;99.90
29917;DHT22;16786;49.466;11.068;2024-03-08T05:54:06;0.20;99.90
29917;DHT22;16786;49.466;11.068;2024-03-08T05:56:33;0.20;99.90
29917;DHT22;16786;49.466;11.068;2024-03-08T05:59:00;0.20;99.90
29917;DHT22;16786;49.466;11.068;2024-03-08T06:01:30;0.30;99.90
29917;DHT22;16786;49.466;11.068;2024-03-08T06:03:57;0.30;99.90
29917;DHT22;16786;49.466;11.068;2024-03-08T06:06:26;0.30;99.90
29917;DHT22;16786;49.466;11.068;2024-03-08T06:08:53;0.40;99.90
29917;DHT22;16786;49.466;11.068;2024-03-08T06:11:20;0.40;99.90
29917;DHT22;16786;49.466;11.068;2024-03-08T06:13:48;0.40;99.90
29917;DHT22;16786;49.466;11.068;2024-03-08T06:16:16;0.40;99.90
29917;DHT22;16786;49.466;11.068;2024-03-08T06:18:43;0.50;99.90
29917;DHT22;16786;49.466;11.068;2024-03-08T06:21:11;0.60;99.90
29917;DHT22;16786;49.466;11.068;2024-03-08T06:23:39;0.60;99.90
29917;DHT22;16786;49.466;11.068;2024-03-08T06:26:07;0.70;99.90
29917;DHT22;16786;49.466;11.068;2024-03-08T06:28:34;0.80;99.90
29917;DHT22;16786;49.466;11.068;2024-03-08T06:31:02;0.80;99.90
29917;DHT22;16786;49.466;11.068;2024-03-08T06:33:29;0.90;99.90
29917;DHT22;16786;49.466;11.068;2024-03-08T06:35:59;0.90;99.90
29917;DHT22;16786;49.466;11.068;2024-03-08T06:38:26;1.00;99.90
29917;DHT22;16786;49.466;11.068;2024-03-08T06:40:53;1.00;99.90
29917;DHT22;16786;49.466;11.068;2024-03-08T06:43:21;1.10;99.90
29917;DHT22;16786;49.466;11.068;2024-03-08T06:45:48;1.10;99.90
29917;DHT22;16786;49.466;11.068;2024-03-08T06:48:16;1.20;99.90
29917;DHT22;16786;49.466;11.068;2024-03-08T06:50:44;1.20;99.90
29917;DHT22;16786;49.466;11.068;2024-03-08T06:53:12;1.30;99.90
29917;DHT22;16786;49.466;11.068;2024-03-08T06:55:40;1.40;99.90
29917;DHT22;16786;49.466;11.068;2024-03-08T06:58:07;1.40;99.90
29917;DHT22;16786;49.466;11.068;2024-03-08T07:00:34;1.50;99.90
29917;DHT22;16786;49.466;11.068;2024-03-08T07:03:01;1.50;99.90
29917;DHT22;16786;49.466;11.068;2024-03-08T07:05:29;1.60;99.90
29917;DHT22;16786;49.466;11.068;2024-03-08T07:07:58;1.70;99.90
29917;DHT22;16786;49.466;11.068;2024-03-08T07:10:25;1.80;99.90
29917;DHT22;16786;49.466;11.068;2024-03-08T07:12:52;1.90;99.90
29917;DHT22;16786;49.466;11.068;2024-03-08T07:15:22;2.00;99.90
29917;DHT22;16786;49.466;11.068;2024-03-08T07:17:50;2.10;99.90
29917;DHT22;16786;49.466;11.068;2024-03-08T07:20:20;2.10;99.90
29917;DHT22;16786;49.466;11.068;2024-03-08T07:22:47;2.20;99.90
29917;DHT22;16786;49.466;11.068;2024-03-08T07:25:15;2.20;99.90
29917;DHT22;16786;49.466;11.068;2024-03-08T07:27:50;2.30;99.90
29917;DHT22;16786;49.466;11.068;2024-03-08T07:30:19;2.40;99.90
29917;DHT22;16786;49.466;11.068;2024-03-08T07:33:05;2.50;99.90
29917;DHT22;16786;49.466;11.068;2024-03-08T07:35:34;2.60;99.90
29917;DHT22;16786;49.466;11.068;2024-03-08T07:38:05;2.70;99.90
29917;DHT22;16786;49.466;11.068;2024-03-08T07:40:35;2.70;99.90
29917;DHT22;16786;49.466;11.068;2024-03-08T07:43:03;2.80;99.90
29917;DHT22;16786;49.466;11.068;2024-03-08T07:45:30;2.90;99.90
29917;DHT22;16786;49.466;11.068;2024-03-08T07:47:57;3.10;99.90
29917;DHT22;16786;49.466;11.068;2024-03-08T07:50:24;3.10;99.90
29917;DHT22;16786;49.466;11.068;2024-03-08T07:52:51;3.20;99.90
29917;DHT22;16786;49.466;11.068;2024-03-08T07:55:18;3.30;99.90
29917;DHT22;16786;49.466;11.068;2024-03-08T07:57:45;3.40;99.90
29917;DHT22;16786;49.466;11.068;2024-03-08T08:00:14;3.40;99.90
29917;DHT22;16786;49.466;11.068;2024-03-08T08:02:45;3.50;99.90
29917;DHT22;16786;49.466;11.068;2024-03-08T08:05:12;3.50;99.90
29917;DHT22;16786;49.466;11.068;2024-03-08T08:07:40;3.60;99.90
29917;DHT22;16786;49.466;11.068;2024-03-08T08:10:11;3.70;99.90
29917;DHT22;16786;49.466;11.068;2024-03-08T08:12:45;3.70;99.90
29917;DHT22;16786;49.466;11.068;2024-03-08T08:15:13;3.80;99.90
29917;DHT22;16786;49.466;11.068;2024-03-08T08:17:42;3.80;99.90
29917;DHT22;16786;49.466;11.068;2024-03-08T08:20:10;3.90;99.90
29917;DHT22;16786;49.466;11.068;2024-03-08T08:22:39;4.10;99.90
29917;DHT22;16786;49.466;11.068;2024-03-08T08:25:10;4.20;99.90
29917;DHT22;16786;49.466;11.068;2024-03-08T08:27:40;4.30;99.90
29917;DHT22;16786;49.466;11.068;2024-03-08T08:30:09;4.40;99.90
29917;DHT22;16786;49.466;11.068;2024-03-08T08:32:38;4.50;99.90
29917;DHT22;16786;49.466;11.068;2024-03-08T08:35:14;4.60;99.90
29917;DHT22;16786;49.466;11.068;2024-03-08T08:37:41;4.70;99.90
29917;DHT22;16786;49.466;11.068;2024-03-08T08:40:08;4.90;99.90
29917;DHT22;16786;49.466;11.068;2024-03-08T08:42:37;5.00;99.90
29917;DHT22;16786;49.466;11.068;2024-03-08T08:45:07;5.10;99.90
29917;DHT22;16786;49.466;11.068;2024-03-08T08:47:44;5.30;99.90
29917;DHT22;16786;49.466;11.068;2024-03-08T08:50:12;5.40;99.90
29917;DHT22;16786;49.466;11.068;2024-03-08T08:52:40;5.50;99.90
29917;DHT22;16786;49.466;11.068;2024-03-08T08:55:08;5.60;99.90
29917;DHT22;16786;49.466;11.068;2024-03-08T08:57:35;5.80;99.90
29917;DHT22;16786;49.466;11.068;2024-03-08T09:00:03;5.90;99.90
29917;DHT22;16786;49.466;11.068;2024-03-08T09:02:34;6.00;99.90
29917;DHT22;16786;49.466;11.068;2024-03-08T09:05:02;6.10;99.90
29917;DHT22;16786;49.466;11.068;2024-03-08T09:07:30;6.30;99.90
29917;DHT22;16786;49.466;11.068;2024-03-08T09:09:57;6.30;99.90
29917;DHT22;16786;49.466;11.068;2024-03-08T09:12:26;6.40;99.90
29917;DHT22;16786;49.466;11.068;2024-03-08T09:14:53;6.50;99.90
29917;DHT22;16786;49.466;11.068;2024-03-08T09:17:20;6.70;99.90
29917;DHT22;16786;49.466;11.068;2024-03-08T09:19:47;6.90;99.90
29917;DHT22;16786;49.466;11.068;2024-03-08T09:22:15;7.00;99.90
29917;DHT22;16786;49.466;11.068;2024-03-08T09:24:42;7.20;99.90
29917;DHT22;16786;49.466;11.068;2024-03-08T09:27:10;7.30;99.90
29917;DHT22;16786;49.466;11.068;2024-03-08T09:29:36;7.40;99.90
29917;DHT22;16786;49.466;11.068;2024-03-08T09:32:03;7.50;99.90
29917;DHT22;16786;49.466;11.068;2024-03-08T09:34:31;7.60;99.90
29917;DHT22;16786;49.466;11.068;2024-03-08T09:37:04;7.70;99.90
29917;DHT22;16786;49.466;11.068;2024-03-08T09:39:31;7.80;99.90
29917;DHT22;16786;49.466;11.068;2024-03-08T09:42:01;8.00;99.90
29917;DHT22;16786;49.466;11.068;2024-03-08T09:44:28;8.00;99.90
29917;DHT22;16786;49.466;11.068;2024-03-08T09:46:55;8.00;99.90
29917;DHT22;16786;49.466;11.068;2024-03-08T09:49:25;8.00;99.90
29917;DHT22;16786;49.466;11.068;2024-03-08T09:51:52;8.10;99.90
29917;DHT22;16786;49.466;11.068;2024-03-08T09:54:20;8.30;99.90
29917;DHT22;16786;49.466;11.068;2024-03-08T09:56:51;8.40;99.90
29917;DHT22;16786;49.466;11.068;2024-03-08T09:59:18;8.40;99.90
29917;DHT22;16786;49.466;11.068;2024-03-08T10:01:54;8.50;99.90
29917;DHT22;16786;49.466;11.068;2024-03-08T10:04:26;8.70;99.90
29917;DHT22;16786;49.466;11.068;2024-03-08T10:06:55;8.80;99.90
29917;DHT22;16786;49.466;11.068;2024-03-08T10:09:23;8.90;99.90
29917;DHT22;16786;49.466;11.068;2024-03-08T10:11:59;9.00;99.90
29917;DHT22;16786;49.466;11.068;2024-03-08T10:14:26;9.10;99.90
29917;DHT22;16786;49.466;11.068;2024-03-08T10:16:57;9.10;99.90
29917;DHT22;16786;49.466;11.068;2024-03-08T10:19:27;9.20;99.90
29917;DHT22;16786;49.466;11.068;2024-03-08T10:21:57;9.40;99.90
29917;DHT22;16786;49.466;11.068;2024-03-08T10:24:26;9.40;99.90
29917;DHT22;16786;49.466;11.068;2024-03-08T10:26:58;9.50;99.90
29917;DHT22;16786;49.466;11.068;2024-03-08T10:29:25;9.60;99.90
29917;DHT22;16786;49.466;11.068;2024-03-08T10:31:52;9.70;99.90
29917;DHT22;16786;49.466;11.068;2024-03-08T10:34:19;9.80;99.90
29917;DHT22;16786;49.466;11.068;2024-03-08T10:36:50;10.00;99.90
29917;DHT22;16786;49.466;11.068;2024-03-08T10:39:23;10.00;99.90
29917;DHT22;16786;49.466;11.068;2024-03-08T10:41:57;10.20;99.90
29917;DHT22;16786;49.466;11.068;2024-03-08T10:47:18;10.70;99.90
29917;DHT22;16786;49.466;11.068;2024-03-08T10:50:08;10.90;99.90
29917;DHT22;16786;49.466;11.068;2024-03-08T10:52:37;11.00;99.90
29917;DHT22;16786;49.466;11.068;2024-03-08T10:55:05;11.20;99.90
29917;DHT22;16786;49.466;11.068;2024-03-08T10:57:39;11.30;99.90
29917;DHT22;16786;49.466;11.068;2024-03-08T11:00:08;11.20;99.90
29917;DHT22;16786;49.466;11.068;2024-03-08T11:02:39;11.30;99.90
29917;DHT22;16786;49.466;11.068;2024-03-08T11:05:10;11.60;99.90
29917;DHT22;16786;49.466;11.068;2024-03-08T11:07:43;11.80;99.90
29917;DHT22;16786;49.466;11.068;2024-03-08T11:10:19;12.10;99.90
29917;DHT22;16786;49.466;11.068;2024-03-08T11:12:47;12.20;99.90
29917;DHT22;16786;49.466;11.068;2024-03-08T11:15:15;12.30;99.90
29917;DHT22;16786;49.466;11.068;2024-03-08T11:17:49;12.60;99.90
29917;DHT22;16786;49.466;11.068;2024-03-08T11:20:18;12.70;99.90
29917;DHT22;16786;49.466;11.068;2024-03-08T11:22:55;12.80;99.90
29917;DHT22;16786;49.466;11.068;2024-03-08T11:25:40;13.00;99.90
29917;DHT22;16786;49.466;11.068;2024-03-08T11:28:20;13.30;99.90
29917;DHT22;16786;49.466;11.068;2024-03-08T11:33:30;13.50;99.90
29917;DHT22;16786;49.466;11.068;2024-03-08T11:36:11;13.70;99.90
29917;DHT22;16786;49.466;11.068;2024-03-08T11:38:43;13.70;99.90
29917;DHT22;16786;49.466;11.068;2024-03-08T11:41:20;13.90;99.90
29917;DHT22;16786;49.466;11.068;2024-03-08T11:43:48;14.30;99.70
29917;DHT22;16786;49.466;11.068;2024-03-08T11:46:16;14.50;98.60
29917;DHT22;16786;49.466;11.068;2024-03-08T11:48:47;14.50;97.80
29917;DHT22;16786;49.466;11.068;2024-03-08T11:51:15;14.60;97.50
29917;DHT22;16786;49.466;11.068;2024-03-08T11:53:45;14.90;96.90
29917;DHT22;16786;49.466;11.068;2024-03-08T11:56:14;15.30;95.90
29917;DHT22;16786;49.466;11.068;2024-03-08T11:58:53;15.60;94.70
29917;DHT22;16786;49.466;11.068;2024-03-08T12:01:24;15.70;93.90
29917;DHT22;16786;49.466;11.068;2024-03-08T12:03:55;15.90;93.50
29917;DHT22;16786;49.466;11.068;2024-03-08T12:06:27;16.30;92.50
29917;DHT22;16786;49.466;11.068;2024-03-08T12:09:03;16.60;91.70
29917;DHT22;16786;49.466;11.068;2024-03-08T12:11:30;16.90;90.20
29917;DHT22;16786;49.466;11.068;2024-03-08T12:14:01;17.00;89.70
29917;DHT22;16786;49.466;11.068;2024-03-08T12:16:28;17.10;86.90
29917;DHT22;16786;49.466;11.068;2024-03-08T12:18:55;17.50;84.50
29917;DHT22;16786;49.466;11.068;2024-03-08T12:21:23;17.80;83.00
29917;DHT22;16786;49.466;11.068;2024-03-08T12:24:03;17.70;82.20
29917;DHT22;16786;49.466;11.068;2024-03-08T12:26:30;17.60;81.80
29917;DHT22;16786;49.466;11.068;2024-03-08T12:29:18;17.90;80.70
29917;DHT22;16786;49.466;11.068;2024-03-08T12:31:57;18.40;78.80
29917;DHT22;16786;49.466;11.068;2024-03-08T12:34:26;18.90;76.60
29917;DHT22;16786;49.466;11.068;2024-03-08T12:36:55;19.10;75.10
29917;DHT22;16786;49.466;11.068;2024-03-08T12:39:23;19.60;73.90
29917;DHT22;16786;49.466;11.068;2024-03-08T12:41:54;19.40;72.60
29917;DHT22;16786;49.466;11.068;2024-03-08T12:44:21;19.90;71.20
29917;DHT22;16786;49.466;11.068;2024-03-08T12:46:52;20.10;70.30
29917;DHT22;16786;49.466;11.068;2024-03-08T12:49:20;20.30;68.60
29917;DHT22;16786;49.466;11.068;2024-03-08T12:51:50;20.60;67.30
29917;DHT22;16786;49.466;11.068;2024-03-08T12:54:19;20.60;66.50
29917;DHT22;16786;49.466;11.068;2024-03-08T12:56:50;21.30;65.80
29917;DHT22;16786;49.466;11.068;2024-03-08T12:59:20;22.70;63.80
29917;DHT22;16786;49.466;11.068;2024-03-08T13:01:48;23.90;60.80
29917;DHT22;16786;49.466;11.068;2024-03-08T13:04:17;24.50;57.90
29917;DHT22;16786;49.466;11.068;2024-03-08T13:06:45;24.50;56.20
29917;DHT22;16786;49.466;11.068;2024-03-08T13:09:18;24.90;55.20
29917;DHT22;16786;49.466;11.068;2024-03-08T13:11:46;25.50;53.90
29917;DHT22;16786;49.466;11.068;2024-03-08T13:14:13;26.50;52.50
29917;DHT22;16786;49.466;11.068;2024-03-08T13:16:40;26.70;51.30
29917;DHT22;16786;49.466;11.068;2024-03-08T13:19:07;27.10;49.70
29917;DHT22;16786;49.466;11.068;2024-03-08T13:21:34;28.30;47.20
29917;DHT22;16786;49.466;11.068;2024-03-08T13:24:02;27.60;46.60
29917;DHT22;16786;49.466;11.068;2024-03-08T13:26:30;28.60;45.80
29917;DHT22;16786;49.466;11.068;2024-03-08T13:29:00;28.90;46.30
29917;DHT22;16786;49.466;11.068;2024-03-08T13:31:27;29.70;45.20
29917;DHT22;16786;49.466;11.068;2024-03-08T13:33:55;29.00;45.30
29917;DHT22;16786;49.466;11.068;2024-03-08T13:36:26;29.70;44.30
29917;DHT22;16786;49.466;11.068;2024-03-08T13:39:02;29.10;44.50
29917;DHT22;16786;49.466;11.068;2024-03-08T13:41:37;29.60;44.70
29917;DHT22;16786;49.466;11.068;2024-03-08T13:44:04;30.30;43.80
29917;DHT22;16786;49.466;11.068;2024-03-08T13:46:33;29.90;43.20
29917;DHT22;16786;49.466;11.068;2024-03-08T13:49:05;29.10;44.00
29917;DHT22;16786;49.466;11.068;2024-03-08T13:51:34;29.40;44.00
29917;DHT22;16786;49.466;11.068;2024-03-08T13:54:02;29.90;43.00
29917;DHT22;16786;49.466;11.068;2024-03-08T13:56:28;29.90;42.70
29917;DHT22;16786;49.466;11.068;2024-03-08T13:58:58;29.80;42.60
29917;DHT22;16786;49.466;11.068;2024-03-08T14:01:25;29.60;42.50
29917;DHT22;16786;49.466;11.068;2024-03-08T14:03:52;29.30;43.30
29917;DHT22;16786;49.466;11.068;2024-03-08T14:06:19;29.70;42.60
29917;DHT22;16786;49.466;11.068;2024-03-08T14:08:49;29.80;42.00
29917;DHT22;16786;49.466;11.068;2024-03-08T14:11:16;29.90;42.20
29917;DHT22;16786;49.466;11.068;2024-03-08T14:13:46;30.00;41.90
29917;DHT22;16786;49.466;11.068;2024-03-08T14:16:13;29.80;41.70
29917;DHT22;16786;49.466;11.068;2024-03-08T14:18:41;29.90;41.80
29917;DHT22;16786;49.466;11.068;2024-03-08T14:21:08;29.40;41.50
29917;DHT22;16786;49.466;11.068;2024-03-08T14:23:35;29.60;42.00
29917;DHT22;16786;49.466;11.068;2024-03-08T14:26:06;30.10;41.10
29917;DHT22;16786;49.466;11.068;2024-03-08T14:28:35;30.60;40.70
29917;DHT22;16786;49.466;11.068;2024-03-08T14:31:03;30.70;40.50
29917;DHT22;16786;49.466;11.068;2024-03-08T14:33:33;29.80;40.60
29917;DHT22;16786;49.466;11.068;2024-03-08T14:36:00;30.00;40.50
29917;DHT22;16786;49.466;11.068;2024-03-08T14:38:28;29.10;41.60
29917;DHT22;16786;49.466;11.068;2024-03-08T14:40:55;29.10;42.10
29917;DHT22;16786;49.466;11.068;2024-03-08T14:43:23;30.00;41.40
29917;DHT22;16786;49.466;11.068;2024-03-08T14:45:51;30.40;41.00
29917;DHT22;16786;49.466;11.068;2024-03-08T14:48:19;31.20;40.10
29917;DHT22;16786;49.466;11.068;2024-03-08T14:50:46;30.90;40.00
29917;DHT22;16786;49.466;11.068;2024-03-08T14:53:14;31.30;39.90
29917;DHT22;16786;49.466;11.068;2024-03-08T14:55:43;31.20;39.70
29917;DHT22;16786;49.466;11.068;2024-03-08T14:58:14;31.50;39.40
29917;DHT22;16786;49.466;11.068;2024-03-08T15:00:41;31.40;39.50
29917;DHT22;16786;49.466;11.068;2024-03-08T15:03:10;30.00;39.30
29917;DHT22;16786;49.466;11.068;2024-03-08T15:05:40;30.70;40.00
29917;DHT22;16786;49.466;11.068;2024-03-08T15:08:14;30.30;40.30
29917;DHT22;16786;49.466;11.068;2024-03-08T15:10:47;30.00;40.50
29917;DHT22;16786;49.466;11.068;2024-03-08T15:13:15;29.80;40.30
29917;DHT22;16786;49.466;11.068;2024-03-08T15:15:50;29.20;40.30
29917;DHT22;16786;49.466;11.068;2024-03-08T15:18:23;29.00;40.70
29917;DHT22;16786;49.466;11.068;2024-03-08T15:20:52;28.70;41.10
29917;DHT22;16786;49.466;11.068;2024-03-08T15:23:19;28.70;41.10
29917;DHT22;16786;49.466;11.068;2024-03-08T15:25:48;28.80;41.40
29917;DHT22;16786;49.466;11.068;2024-03-08T15:28:16;29.30;40.90
29917;DHT22;16786;49.466;11.068;2024-03-08T15:30:46;29.60;40.80
29917;DHT22;16786;49.466;11.068;2024-03-08T15:33:18;29.40;40.70
29917;DHT22;16786;49.466;11.068;2024-03-08T15:35:52;29.30;40.90
29917;DHT22;16786;49.466;11.068;2024-03-08T15:38:26;27.90;41.20
29917;DHT22;16786;49.466;11.068;2024-03-08T15:40:56;27.60;42.20